Latest Weather Observations for Lake Grace

IDW60801

Issued at 4:23 am WST Wednesday 8 December 2021 (issued every 10 minutes, with the page automatically refreshed every 10 minutes)

About weather observations | Map of weather stations | Latest weather observations for WA | Other Formats
Station Details ID: 010911 Name: LAKE GRACE Lat: -33.10 Lon: 118.46 Height: 286.0 m
Data from the previous 72 hours. | See also: Recent months at Lake Grace
Date/Time
WST
Temp
°C
App
Temp
°C
Dew
Point
°C
Rel
Hum
%
Delta-T
°C
Wind Press
QNH
hPa
Press
MSL
hPa
Rain since
9am
mm
Dir  Spd
km/h
Gust
km/h
Spd
kts
Gust
kts
08/04:00am 15.5 11.0 6.8 56 4.3 E 20 33 11 18 1016.0 1014.9 0.0
08/03:30am 15.7 10.1 7.0 56 4.3 E 26 37 14 20 1015.8 1014.7 0.0
08/03:00am 15.5 10.2 7.0 57 4.2 E 24 35 13 19 1015.5 1014.4 0.0
08/02:30am 15.3 10.1 7.3 59 4.0 E 24 39 13 21 1015.6 1014.5 0.0
08/02:00am 15.1 10.4 7.6 61 3.8 ESE 22 37 12 20 1016.0 1014.9 0.0
08/01:30am 15.1 11.4 7.9 62 3.7 ESE 17 30 9 16 1016.9 1015.7 0.0
08/01:00am 14.8 11.2 8.3 65 3.3 ESE 17 24 9 13 1017.0 1015.8 0.0
08/12:30am 14.7 11.2 8.6 67 3.1 ESE 17 32 9 17 1017.1 1015.9 0.0
08/12:00am 14.9 10.8 8.8 67 3.1 ESE 20 32 11 17 1017.1 1015.9 0.0
 
Date/Time
WST
Temp
°C
App
Temp
°C
Dew
Point
°C
Rel
Hum
%
Delta-T
°C
Wind Press
QNH
hPa
Press
MSL
hPa
Rain since
9am
mm
Dir  Spd
km/h
Gust
km/h
Spd
kts
Gust
kts
07/11:30pm 15.0 11.2 8.9 67 3.2 ESE 19 33 10 18 1017.3 1016.1 0.0
07/11:00pm 15.2 10.8 8.9 66 3.3 ESE 22 35 12 19 1017.0 1015.8 0.0
07/10:30pm 15.4 11.0 9.1 66 3.3 ESE 22 35 12 19 1017.1 1015.9 0.0
07/10:00pm 15.8 11.4 9.0 64 3.5 ESE 22 43 12 23 1017.7 1016.6 0.0
07/09:30pm 16.4 11.7 9.1 62 3.8 ESE 24 37 13 20 1017.6 1016.4 0.0
07/09:00pm 16.9 12.2 9.1 60 4.1 ESE 24 37 13 20 1017.6 1016.4 0.0
07/08:30pm 18.0 14.1 9.4 57 4.6 ESE 20 33 11 18 1017.5 1016.3 0.0
07/08:00pm 19.0 14.3 9.2 53 5.2 ESE 24 35 13 19 1017.2 1016.0 0.0
07/07:30pm 20.2 14.2 8.8 48 6.1 ESE 30 44 16 24 1016.7 1015.6 0.0
07/07:00pm 21.6 17.1 8.5 43 7.0 ESE 22 33 12 18 1016.2 1015.1 0.0
07/06:30pm 23.4 17.5 7.5 36 8.4 ESE 28 46 15 25 1015.7 1014.6 0.0
07/06:10pm 24.7 17.8 7.4 33 9.2 ESE 33 56 18 30 1015.3 1014.2 0.0
07/06:00pm 25.5 18.7 7.1 31 9.8 ESE 32 46 17 25 1015.3 1014.2 0.0
07/05:48pm 25.8 19.1 7.4 31 9.9 ESE 32 50 17 27 1015.1 1014.0 0.0
07/05:30pm 26.5 20.1 7.0 29 10.4 ESE 30 43 16 23 1015.2 1014.1 0.0
07/05:00pm 29.0 23.7 7.0 25 11.9 E 24 41 13 22 1014.8 1013.7 0.0
07/04:43pm 29.1 23.2 7.7 26 11.7 E 28 46 15 25 1014.8 1013.7 0.0
07/04:30pm 29.3 23.9 7.8 26 11.8 E 26 41 14 22 1014.9 1013.8 0.0
07/04:00pm 29.0 23.5 7.6 26 11.7 E 26 43 14 23 1014.9 1013.8 0.0
07/03:30pm 28.9 23.4 7.5 26 11.7 E 26 41 14 22 1015.0 1013.9 0.0
07/03:00pm 28.8 23.0 7.9 27 11.5 E 28 43 15 23 1015.3 1014.2 0.0
07/02:30pm 28.9 23.1 8.0 27 11.5 E 28 39 15 21 1015.7 1014.6 0.0
07/02:00pm 27.9 22.4 7.7 28 11.0 E 26 39 14 21 1016.2 1015.1 0.0
07/01:30pm 27.5 21.6 7.4 28 10.9 E 28 39 15 21 1016.6 1015.5 0.0
07/01:00pm 26.7 21.6 7.7 30 10.3 E 24 37 13 20 1017.0 1015.8 0.0
07/12:30pm 26.2 20.3 7.3 30 10.1 E 28 43 15 23 1017.4 1016.2 0.0
07/12:00pm 24.6 18.9 6.8 32 9.4 E 26 44 14 24 1017.9 1016.8 0.0
07/11:30am 24.2 18.1 6.5 32 9.3 E 28 43 15 23 1018.5 1017.4 0.0
07/11:00am 22.7 16.6 6.5 35 8.4 E 28 48 15 26 1018.7 1017.6 0.0
07/10:53am 22.8 16.6 6.1 34 8.6 E 28 48 15 26 1018.8 1017.7 0.0
07/10:30am 22.1 15.9 6.3 36 8.1 E 28 39 15 21 1019.3 1018.2 0.0
07/10:00am 21.0 14.8 6.2 38 7.5 E 28 43 15 23 1019.5 1018.4 0.0
07/09:30am 19.8 13.1 5.8 40 7.0 E 30 48 16 26 1019.9 1018.8 0.0
07/09:00am 18.6 12.0 6.1 44 6.2 E 30 52 16 28 1020.2 1019.1 0.0
07/08:58am 18.4 12.1 5.9 44 6.2 E 28 52 15 28 1020.2 1019.1 0.0
07/08:30am 17.8 11.6 6.0 46 5.9 E 28 43 15 23 1020.3 1019.2 0.0
07/08:20am 17.7 11.2 6.6 48 5.6 E 30 50 16 27 1020.3 1019.2 0.0
07/08:00am 16.9 10.8 6.7 51 5.1 E 28 44 15 24 1020.3 1019.2 0.0
07/07:30am 16.1 10.0 6.5 53 4.8 E 28 43 15 23 1020.2 1019.1 0.0
07/07:00am 15.1 9.0 6.7 57 4.1 ESE 28 48 15 26 1019.9 1018.8 0.0
07/06:50am 14.9 8.8 6.5 57 4.1 ESE 28 46 15 25 1019.9 1018.8 0.0
07/06:30am 14.5 8.4 6.6 59 3.9 ESE 28 41 15 22 1020.1 1019.0 0.0
07/06:17am 14.2 8.1 6.6 60 3.7 ESE 28 48 15 26 1020.0 1018.9 0.0
07/06:00am 13.8 8.1 6.7 62 3.5 E 26 44 14 24 1020.0 1018.9 0.0
07/05:30am 13.5 8.2 6.8 64 3.3 ESE 24 39 13 21 1019.9 1018.8 0.0
07/05:00am 13.1 9.2 7.1 67 2.9 E 17 30 9 16 1019.6 1018.5 0.0
07/04:30am 13.5 8.4 7.7 68 2.9 ESE 24 37 13 20 1019.3 1018.2 0.0
07/04:00am 13.7 8.7 8.1 69 2.8 E 24 39 13 21 1019.3 1018.2 0.0
07/03:30am 13.6 9.2 7.6 67 3.0 ESE 20 33 11 18 1019.4 1018.3 0.0
07/03:00am 13.4 8.2 7.4 67 3.0 E 24 37 13 20 1019.1 1018.0 0.0
07/02:30am 13.7 9.0 7.7 67 3.0 E 22 35 12 19 1019.2 1018.1 0.0
07/02:00am 13.6 8.9 7.8 68 2.9 ESE 22 35 12 19 1019.2 1018.1 0.0
07/01:30am 13.3 8.2 7.5 68 2.9 ESE 24 39 13 21 1019.2 1018.1 0.0
07/01:00am 12.7 7.6 7.8 72 2.4 ESE 24 33 13 18 1019.4 1018.3 0.0
07/12:30am 13.0 8.3 7.7 70 2.6 ESE 22 33 12 18 1019.6 1018.5 0.0
07/12:00am 13.5 6.9 7.7 68 2.9 ESE 32 48 17 26 1019.5 1018.4 0.0
 
Date/Time
WST
Temp
°C
App
Temp
°C
Dew
Point
°C
Rel
Hum
%
Delta-T
°C
Wind Press
QNH
hPa
Press
MSL
hPa
Rain since
9am
mm
Dir  Spd
km/h
Gust
km/h
Spd
kts
Gust
kts
06/11:42pm 13.9 8.1 7.9 67 3.0 ESE 28 46 15 25 1019.6 1018.5 0.0
06/11:30pm 14.2 8.8 8.2 67 3.0 ESE 26 39 14 21 1019.6 1018.5 0.0
06/11:03pm 14.0 8.3 8.4 69 2.8 ESE 28 46 15 25 1019.6 1018.5 0.0
06/11:00pm 13.9 7.9 8.5 70 2.7 ESE 30 46 16 25 1019.7 1018.6 0.0
06/10:51pm 13.9 8.2 8.3 69 2.8 ESE 28 46 15 25 1019.7 1018.6 0.0
06/10:30pm 14.1 7.6 8.3 68 2.9 ESE 32 46 17 25 1019.8 1018.7 0.0
06/10:22pm 14.1 8.4 8.5 69 2.9 ESE 28 46 15 25 1019.9 1018.8 0.0
06/10:00pm 14.0 8.7 8.6 70 2.7 ESE 26 43 14 23 1020.0 1018.9 0.0
06/09:30pm 13.9 8.2 8.5 70 2.8 ESE 28 41 15 22 1020.0 1018.9 0.0
06/09:00pm 13.9 8.6 8.5 70 2.7 SE 26 44 14 24 1019.9 1018.8 0.0
06/08:30pm 14.0 8.4 8.6 70 2.8 SE 28 41 15 22 1019.6 1018.5 0.0
06/08:00pm 14.3 8.6 8.5 68 3.0 SE 28 43 15 23 1019.5 1018.4 0.0
06/07:32pm 14.5 8.8 8.5 67 3.1 SE 28 46 15 25 1019.4 1018.3 0.0
06/07:30pm 14.4 8.3 8.4 67 3.1 SE 30 46 16 25 1019.4 1018.3 0.0
06/07:00pm 15.0 9.1 8.9 67 3.1 SE 30 50 16 27 1019.3 1018.2 0.0
06/06:43pm 15.4 9.8 8.9 65 3.4 SE 28 46 15 25 1019.2 1018.1 0.0
06/06:30pm 16.0 10.4 8.7 62 3.8 SE 28 43 15 23 1019.0 1017.9 0.0
06/06:00pm 17.2 11.3 9.1 59 4.3 SE 30 48 16 26 1018.7 1017.6 0.0
06/05:58pm 17.1 11.2 9.0 59 4.3 SE 30 48 16 26 1018.7 1017.6 0.0
06/05:30pm 18.4 12.5 9.2 55 4.9 SE 30 46 16 25 1018.1 1017.0 0.0
06/05:05pm 19.5 14.2 9.7 53 5.3 SE 28 46 15 25 1018.0 1016.9 0.0
06/05:00pm 19.2 13.1 9.7 54 5.1 SE 32 46 17 25 1017.9 1016.8 0.0
06/04:30pm 20.1 15.2 9.9 52 5.5 SE 26 44 14 24 1017.9 1016.8 0.0
06/04:00pm 20.1 13.9 10.2 53 5.4 SE 33 54 18 29 1017.9 1016.8 0.0
06/03:31pm 20.7 15.3 10.8 53 5.5 SE 30 48 16 26 1017.9 1016.8 0.0
06/03:30pm 20.5 14.6 10.6 53 5.5 SE 32 48 17 26 1017.9 1016.8 0.0
06/03:00pm 22.1 16.6 10.6 48 6.4 SE 30 50 16 27 1017.6 1016.4 0.0
06/02:55pm 22.3 16.8 10.5 47 6.6 SE 30 50 16 27 1017.6 1016.4 0.0
06/02:30pm 23.4 18.7 10.8 45 7.1 SE 26 41 14 22 1017.5 1016.3 0.0
06/02:00pm 23.3 17.8 10.4 44 7.2 SE 30 50 16 27 1017.5 1016.3 0.0
06/01:58pm 23.2 17.6 10.3 44 7.2 SE 30 50 16 27 1017.4 1016.2 0.0
06/01:30pm 23.7 18.2 10.4 43 7.4 SE 30 44 16 24 1017.6 1016.4 0.0
06/01:00pm 24.5 19.6 10.0 40 8.1 SE 26 41 14 22 1017.6 1016.4 0.0
06/12:30pm 24.1 19.5 8.1 36 8.6 SE 22 37 12 20 1017.8 1016.7 0.0
06/12:00pm 24.2 19.3 8.6 37 8.5 SE 24 46 13 25 1017.8 1016.7 0.0
06/11:30am 24.2 20.1 7.8 35 8.8 ESE 19 33 10 18 1018.1 1017.0 0.0
06/11:00am 23.0 17.8 7.1 36 8.3 SE 24 37 13 20 1018.4 1017.3 0.0
06/10:30am 21.9 16.9 8.1 41 7.3 ESE 24 35 13 19 1018.6 1017.5 0.0
06/10:00am 21.7 17.3 8.9 44 6.9 SE 22 37 12 20 1018.6 1017.5 0.0
06/09:30am 20.8 15.7 7.8 43 6.8 SE 24 35 13 19 1018.9 1017.8 0.0
06/09:00am 20.0 15.1 8.4 47 6.1 ESE 24 35 13 19 1019.1 1018.0 0.0
06/08:30am 19.1 14.2 8.4 50 5.6 ESE 24 43 13 23 1019.2 1018.1 0.0
06/08:00am 18.4 13.9 8.7 53 5.1 ESE 22 37 12 20 1019.4 1018.3 0.0
06/07:30am 17.1 11.8 8.5 57 4.5 ESE 26 43 14 23 1019.5 1018.4 0.0
06/07:00am 16.5 11.7 9.0 61 3.9 ESE 24 37 13 20 1019.5 1018.4 0.0
06/06:30am 15.3 11.5 9.9 70 2.9 ESE 20 32 11 17 1019.3 1018.2 0.0
06/06:00am 14.5 10.8 10.3 76 2.2 ESE 20 33 11 18 1019.3 1018.2 0.0
06/05:30am 13.7 11.3 9.9 78 2.0 SE 13 19 7 10 1019.1 1018.0 0.0
06/05:00am 13.3 10.4 9.7 79 1.9 SE 15 22 8 12 1018.8 1017.7 0.0
06/04:30am 13.6 10.9 8.9 73 2.4 SSE 13 20 7 11 1018.6 1017.5 0.0
06/04:00am 14.2 10.6 8.4 68 2.9 SE 17 24 9 13 1018.4 1017.3 0.0
06/03:30am 14.7 10.5 8.2 65 3.3 ESE 20 28 11 15 1018.3 1017.2 0.0
06/03:00am 14.9 10.4 8.4 65 3.3 ESE 22 32 12 17 1018.1 1017.0 0.0
06/02:30am 14.8 10.3 8.5 66 3.2 SE 22 37 12 20 1018.0 1016.9 0.0
06/02:00am 14.9 10.5 8.8 67 3.1 SE 22 33 12 18 1018.0 1016.9 0.0
06/01:30am 14.8 10.8 9.2 69 2.9 SE 20 33 11 18 1018.0 1016.9 0.0
06/01:00am 14.8 10.6 9.6 71 2.7 SE 22 33 12 18 1018.1 1017.0 0.0
06/12:30am 14.7 11.1 9.7 72 2.6 SE 19 30 10 16 1018.1 1017.0 0.0
06/12:00am 14.7 10.9 9.9 73 2.5 SE 20 32 11 17 1018.1 1017.0 0.0
 
Date/Time
WST
Temp
°C
App
Temp
°C
Dew
Point
°C
Rel
Hum
%
Delta-T
°C
Wind Press
QNH
hPa
Press
MSL
hPa
Rain since
9am
mm
Dir  Spd
km/h
Gust
km/h
Spd
kts
Gust
kts
05/11:30pm 15.0 11.3 10.2 73 2.5 SE 20 32 11 17 1018.2 1017.1 0.0
05/11:00pm 14.9 11.4 10.3 74 2.4 SE 19 28 10 15 1018.2 1017.1 0.0
05/10:30pm 14.9 11.8 10.3 74 2.4 SE 17 28 9 15 1018.3 1017.2 0.0
05/10:00pm 15.3 13.0 10.3 72 2.7 SE 13 24 7 13 1018.2 1017.1 0.0
05/09:30pm 16.1 12.4 10.0 67 3.2 SE 20 32 11 17 1017.9 1016.8 0.0
05/09:00pm 17.0 12.4 9.7 62 3.9 SE 24 35 13 19 1017.7 1016.6 0.0
05/08:30pm 17.9 12.9 9.5 58 4.5 SE 26 41 14 22 1017.3 1016.1 0.0
05/08:00pm 19.1 13.8 9.9 55 5.0 SE 28 39 15 21 1017.0 1015.8 0.0
05/07:30pm 19.9 14.6 9.8 52 5.5 SSE 28 43 15 23 1016.5 1015.4 0.0
05/07:00pm 21.4 15.3 9.6 47 6.4 SSE 32 48 17 26 1016.1 1015.0 0.0
05/06:52pm 22.1 16.6 9.3 44 7.0 SSE 28 46 15 25 1015.7 1014.6 0.0
05/06:30pm 24.1 18.2 7.7 35 8.8 SE 28 43 15 23 1015.1 1014.0 0.0
05/06:00pm 26.4 21.2 8.8 33 9.7 SE 26 37 14 20 1014.5 1013.3 0.0
05/05:30pm 27.0 21.4 8.9 32 10.0 SE 28 43 15 23 1014.1 1012.9 0.0
05/05:08pm 28.4 22.8 8.7 29 11.0 SE 28 46 15 25 1013.7 1012.5 0.0
05/05:00pm 28.5 22.3 9.2 30 10.8 SE 32 46 17 25 1013.6 1012.4 0.0
05/04:54pm 28.7 23.1 8.9 29 11.1 SE 28 44 15 24 1013.5 1012.3 0.0
05/04:30pm 31.2 26.7 2.4 16 14.6 SSW 15 26 8 14 1013.2 1012.0 0.0
05/04:00pm 31.2 27.9 2.4 16 14.6 SSE 9 20 5 11 1013.2 1012.0 0.0
05/03:30pm 30.9 27.0 1.3 15 14.7 S 11 20 6 11 1013.3 1012.1 0.0
05/03:00pm 31.2 26.9 3.3 17 14.4 S 15 30 8 16 1013.6 1012.4 0.0
05/02:30pm 30.7 26.5 3.7 18 14.0 S 15 22 8 12 1013.7 1012.5 0.0
05/02:00pm 30.7 26.2 4.4 19 13.8 SW 17 24 9 13 1014.0 1012.8 0.0
05/01:30pm 30.6 27.3 4.4 19 13.7 SW 11 28 6 15 1014.3 1013.1 0.0
05/01:00pm 30.2 26.6 4.8 20 13.4 S 13 24 7 13 1014.5 1013.3 0.0
05/12:30pm 29.8 26.9 6.5 23 12.6 SSE 11 26 6 14 1014.9 1013.8 0.0
05/12:00pm 30.4 26.9 5.6 21 13.2 WSW 13 24 7 13 1015.1 1014.0 0.0
05/11:30am 29.5 27.8 7.4 25 12.1 NW 6 11 3 6 1015.5 1014.4 0.0
05/11:00am 28.5 26.0 8.2 28 11.2 W 11 19 6 10 1015.7 1014.6 0.0
05/10:30am 28.2 26.9 9.9 32 10.4 SE 7 13 4 7 1016.2 1015.1 0.0
05/10:00am 26.9 25.4 9.3 33 9.8 WNW 7 11 4 6 1016.3 1015.2 0.0
05/09:30am 25.3 23.8 9.2 36 8.9 NNE 7 11 4 6 1016.5 1015.4 0.0
05/09:00am 23.6 22.4 9.6 41 7.7 E 6 11 3 6 1017.1 1015.9 0.0
05/08:30am 22.6 21.1 10.4 46 6.8 E 9 13 5 7 1017.6 1016.4 0.0
05/08:00am 20.9 20.0 10.7 52 5.6 E 6 9 3 5 1018.0 1016.9 0.0
05/07:30am 18.5 17.4 10.6 60 4.3 E 7 11 4 6 1018.0 1016.9 0.0
05/07:00am 16.8 15.3 10.4 66 3.4 E 9 15 5 8 1018.2 1017.1 0.0
05/06:30am 15.2 13.7 10.6 74 2.5 ESE 9 13 5 7 1018.3 1017.2 0.0
05/06:00am 13.4 12.0 10.8 84 1.4 SE 9 15 5 8 1018.2 1017.1 0.0
05/05:30am 12.4 10.1 10.5 88 1.0 SE 13 19 7 10 1018.3 1017.2 0.0
05/05:00am 11.8 9.8 10.2 90 0.8 SE 11 15 6 8 1018.4 1017.3 0.0
05/04:30am 11.8 10.1 10.0 89 0.9 SE 9 13 5 7 1018.4 1017.3 0.0

Other formats

Comma delimited format used in spreadsheet applications
http://www.bom.gov.au/fwo/IDW60801/IDW60801.95637.axf

JavaScript Object Notation format (JSON) in row-major order
http://www.bom.gov.au/fwo/IDW60801/IDW60801.95637.json

Data quality

Most of these data are generated automatically and are frequently updated. Quality checks on data are not normally performed. It is possible for incorrect values to appear. Refer to information at About Latest Weather Observations and please check the disclaimer before using these data.